createdAt,value
2023-05-22T00:00:21.228Z,24.45
2023-05-22T00:03:08.617Z,21.95
2023-05-22T00:05:59.005Z,22.60
2023-05-22T00:08:46.400Z,24.80
2023-05-22T00:11:36.419Z,26.88
2023-05-22T00:14:23.636Z,22.05
2023-05-22T00:17:15.203Z,21.48
2023-05-22T00:20:12.099Z,21.40
2023-05-22T00:23:01.883Z,20.40
2023-05-22T00:25:50.774Z,21.45
2023-05-22T00:28:38.110Z,21.65
2023-05-22T00:31:25.709Z,24.00
2023-05-22T00:34:15.359Z,21.50
2023-05-22T00:37:02.623Z,25.98
2023-05-22T00:39:49.843Z,21.73
2023-05-22T00:42:37.137Z,21.75
2023-05-22T00:45:24.641Z,25.38
2023-05-22T00:48:12.523Z,24.50
2023-05-22T00:51:03.527Z,26.63
2023-05-22T00:53:54.681Z,23.83
2023-05-22T00:56:46.496Z,26.27
2023-05-22T00:59:34.102Z,27.63
2023-05-22T01:02:21.734Z,27.48
2023-05-22T01:05:11.289Z,23.80
2023-05-22T01:08:01.446Z,24.52
2023-05-22T01:10:54.535Z,24.00
2023-05-22T01:14:11.114Z,25.15
2023-05-22T01:17:23.542Z,26.17
2023-05-22T01:20:38.413Z,23.33
2023-05-22T01:24:01.297Z,29.65
2023-05-22T01:26:54.143Z,18.45
2023-05-22T01:29:44.614Z,28.33
2023-05-22T01:32:34.929Z,24.70
2023-05-22T01:35:22.909Z,29.48
2023-05-22T01:38:11.289Z,29.58
2023-05-22T01:40:59.132Z,30.65
2023-05-22T01:43:47.140Z,27.83
2023-05-22T01:46:34.458Z,27.88
2023-05-22T01:49:22.003Z,26.50
2023-05-22T01:52:34.514Z,28.23
2023-05-22T01:55:45.351Z,26.95
2023-05-22T01:59:02.064Z,26.63
2023-05-22T02:01:52.228Z,31.33
2023-05-22T02:04:42.419Z,27.27
2023-05-22T02:07:33.340Z,28.90
2023-05-22T02:10:21.898Z,25.23
2023-05-22T02:13:11.872Z,29.23
2023-05-22T02:15:59.419Z,27.00
2023-05-22T02:18:46.765Z,27.80
2023-05-22T02:21:35.434Z,30.63
2023-05-22T02:24:24.881Z,32.47
2023-05-22T02:27:12.243Z,26.25
2023-05-22T02:29:59.482Z,23.55
2023-05-22T02:32:46.819Z,24.63
2023-05-22T02:35:34.090Z,21.67
2023-05-22T02:38:21.282Z,23.58
2023-05-22T02:41:11.257Z,23.50
2023-05-22T02:43:58.588Z,23.70
2023-05-22T02:46:48.814Z,24.80
2023-05-22T02:49:38.870Z,24.65
2023-05-22T02:52:26.510Z,26.60
2023-05-22T02:55:13.837Z,23.52
2023-05-22T02:58:01.350Z,25.67
2023-05-22T03:00:48.614Z,22.70
2023-05-22T03:03:36.397Z,27.90
2023-05-22T03:06:25.535Z,26.85
2023-05-22T03:09:16.396Z,24.17
2023-05-22T03:12:04.959Z,27.08
2023-05-22T03:14:52.146Z,22.02
2023-05-22T03:17:39.548Z,22.63
2023-05-22T03:20:27.012Z,27.25
2023-05-22T03:23:14.975Z,22.17
2023-05-22T03:26:02.161Z,21.27
2023-05-22T03:28:50.812Z,22.05
2023-05-22T03:31:39.196Z,21.95
2023-05-22T03:34:27.504Z,24.67
2023-05-22T03:37:14.823Z,25.27
2023-05-22T03:40:02.518Z,26.50
2023-05-22T03:42:52.319Z,26.38
2023-05-22T03:45:39.602Z,27.00
2023-05-22T03:48:26.990Z,24.55
2023-05-22T03:51:19.320Z,25.67
2023-05-22T03:54:07.768Z,27.92
2023-05-22T03:56:55.218Z,27.30
2023-05-22T03:59:42.643Z,32.40
2023-05-22T04:05:57.067Z,25.80
2023-05-22T04:08:44.300Z,26.55
2023-05-22T04:11:32.258Z,28.20
2023-05-22T04:14:22.102Z,29.08
2023-05-22T04:17:09.534Z,24.17
2023-05-22T04:19:58.390Z,25.35
2023-05-22T04:22:46.376Z,25.80
2023-05-22T04:25:34.483Z,23.95
2023-05-22T04:28:25.500Z,25.63
2023-05-22T04:31:15.751Z,24.70
2023-05-22T04:34:04.250Z,25.08
2023-05-22T04:36:53.020Z,25.35
2023-05-22T04:39:40.700Z,22.38
2023-05-22T04:42:28.265Z,25.38
2023-05-22T04:45:15.478Z,21.67
2023-05-22T04:48:03.220Z,21.60
2023-05-22T04:50:51.054Z,22.27
2023-05-22T04:53:38.754Z,23.33
2023-05-22T04:59:17.772Z,27.90
2023-05-22T05:02:12.154Z,25.00
2023-05-22T05:04:59.714Z,27.17
2023-05-22T05:07:50.049Z,26.45
2023-05-22T05:10:38.096Z,25.02
2023-05-22T05:13:26.236Z,21.90
2023-05-22T05:16:13.569Z,23.10
2023-05-22T05:19:01.838Z,21.98
2023-05-22T05:21:50.113Z,21.48
2023-05-22T05:24:37.396Z,20.65
2023-05-22T05:27:24.761Z,21.58
2023-05-22T05:30:12.348Z,18.83
2023-05-22T05:32:59.582Z,21.58
2023-05-22T05:35:47.337Z,19.23
2023-05-22T05:38:34.782Z,21.38
2023-05-22T05:41:24.299Z,17.92
2023-05-22T05:44:11.617Z,18.70
2023-05-22T05:49:35.779Z,20.42
2023-05-22T05:52:27.315Z,16.83
2023-05-22T05:55:14.567Z,18.05
2023-05-22T05:58:01.791Z,17.83
2023-05-22T06:00:49.153Z,16.88
2023-05-22T06:03:36.639Z,23.60
2023-05-22T06:06:26.190Z,21.70
2023-05-22T06:09:26.013Z,22.88
2023-05-22T06:12:13.536Z,24.80
2023-05-22T06:15:06.465Z,20.02
2023-05-22T06:17:58.204Z,23.95
2023-05-22T06:20:46.242Z,20.38
2023-05-22T06:23:50.046Z,18.42
2023-05-22T06:27:02.386Z,20.00
2023-05-22T06:33:26.740Z,16.58
2023-05-22T06:41:47.763Z,19.23
2023-05-22T06:43:14.593Z,25.45
2023-05-22T06:45:41.060Z,20.10
2023-05-22T06:46:06.834Z,20.95
2023-05-22T06:48:57.445Z,21.42
2023-05-22T06:52:24.565Z,21.40
2023-05-22T06:55:42.428Z,17.60
2023-05-22T06:58:38.545Z,20.42
2023-05-22T07:01:27.463Z,19.98
2023-05-22T07:04:15.751Z,18.60
2023-05-22T07:07:04.196Z,19.25
2023-05-22T07:09:54.071Z,21.02
2023-05-22T07:16:48.950Z,23.63
2023-05-22T07:19:46.907Z,22.30
2023-05-22T07:22:34.242Z,20.20
2023-05-22T07:25:49.861Z,18.20
2023-05-22T07:28:46.476Z,19.77
2023-05-22T07:31:35.418Z,21.65
2023-05-22T07:34:24.461Z,17.73
2023-05-22T07:37:14.200Z,21.00
2023-05-22T07:40:12.031Z,18.25
2023-05-22T07:43:01.720Z,16.33
2023-05-22T07:46:10.797Z,15.50
2023-05-22T07:48:58.414Z,17.88
2023-05-22T07:51:47.570Z,17.45
2023-05-22T07:57:04.177Z,16.38
2023-05-22T07:57:50.101Z,17.77
2023-05-22T08:00:44.193Z,19.45
2023-05-22T08:04:06.863Z,16.40
2023-05-22T08:07:25.354Z,15.80
2023-05-22T08:10:17.784Z,16.80
2023-05-22T08:17:16.093Z,16.30
2023-05-22T08:29:38.955Z,19.63
2023-05-22T08:56:03.687Z,10.68
2023-05-22T09:04:07.192Z,13.60
2023-05-22T09:17:57.032Z,11.00
2023-05-22T09:22:20.413Z,11.35
2023-05-22T09:23:35.379Z,13.02
2023-05-22T09:29:57.383Z,10.25
2023-05-22T09:32:48.713Z,9.52
2023-05-22T09:48:00.978Z,11.65
2023-05-22T09:54:45.874Z,10.43
2023-05-22T09:57:42.149Z,10.60
2023-05-22T10:00:34.498Z,10.13
2023-05-22T10:03:45.892Z,10.07
2023-05-22T10:06:37.151Z,12.77
2023-05-22T10:09:31.465Z,11.57
2023-05-22T10:12:23.355Z,11.38
2023-05-22T10:18:01.716Z,9.50
2023-05-22T10:20:50.143Z,8.73
2023-05-22T10:23:37.972Z,11.05
2023-05-22T10:26:32.130Z,10.77
2023-05-22T10:29:29.848Z,15.27
2023-05-22T10:32:43.256Z,9.45
2023-05-22T10:35:58.262Z,9.57
2023-05-22T10:39:34.795Z,16.90
2023-05-22T10:42:22.331Z,8.63
2023-05-22T10:45:16.306Z,10.00
2023-05-22T10:48:31.868Z,10.30
2023-05-22T10:52:02.390Z,14.27
2023-05-22T10:57:57.134Z,8.55
2023-05-22T11:01:14.304Z,9.95
2023-05-22T11:04:33.467Z,7.15
2023-05-22T11:10:31.832Z,8.98
2023-05-22T11:13:22.055Z,10.25
2023-05-22T11:16:13.329Z,9.60
2023-05-22T11:22:23.710Z,9.25
2023-05-22T11:25:16.976Z,9.95
2023-05-22T11:28:05.896Z,8.38
2023-05-22T11:30:59.594Z,12.40
2023-05-22T11:36:52.387Z,9.77
2023-05-22T11:39:39.844Z,8.75
2023-05-22T11:42:36.726Z,8.63
2023-05-22T11:45:28.287Z,9.35
2023-05-22T11:48:15.938Z,10.02
2023-05-22T11:51:09.320Z,9.50
2023-05-22T11:54:00.003Z,8.90
2023-05-22T11:56:48.557Z,8.38
2023-05-22T12:00:20.144Z,9.18
2023-05-22T12:07:06.518Z,8.80
2023-05-22T12:09:57.416Z,9.20
2023-05-22T12:16:14.164Z,9.63
2023-05-22T12:22:08.850Z,8.55
2023-05-22T12:22:58.600Z,12.35
2023-05-22T12:25:47.906Z,9.25
2023-05-22T12:28:42.026Z,9.88
2023-05-22T12:34:47.586Z,11.50
2023-05-22T12:40:48.618Z,10.55
2023-05-22T12:44:03.272Z,11.57
2023-05-22T12:50:13.558Z,10.52
2023-05-22T12:59:35.772Z,13.00
2023-05-22T13:07:10.150Z,8.52
2023-05-22T13:09:39.442Z,9.88
2023-05-22T13:15:49.758Z,10.52
2023-05-22T14:03:02.200Z,19.30
2023-05-22T14:06:27.354Z,17.77
2023-05-22T14:12:52.711Z,18.10
2023-05-22T14:30:31.273Z,11.38
2023-05-22T14:33:42.360Z,11.65
2023-05-22T14:36:34.595Z,12.05
2023-05-22T14:39:22.522Z,12.35
2023-05-22T14:42:11.341Z,13.13
2023-05-22T14:44:59.019Z,10.52
2023-05-22T14:47:53.396Z,11.27
2023-05-22T14:51:53.256Z,12.30
2023-05-22T14:57:23.752Z,11.30
2023-05-22T15:00:12.762Z,16.23
2023-05-22T15:03:36.578Z,16.25
2023-05-22T15:06:24.440Z,13.30
2023-05-22T15:09:18.370Z,19.98
2023-05-22T15:12:06.584Z,17.52
2023-05-22T15:14:54.584Z,12.70
2023-05-22T15:17:53.231Z,14.32
2023-05-22T15:20:41.426Z,13.80
2023-05-22T15:23:30.879Z,13.02
2023-05-22T15:26:18.396Z,13.10
2023-05-22T15:29:13.317Z,12.98
2023-05-22T15:32:08.289Z,13.75
2023-05-22T15:44:39.005Z,8.00
2023-05-22T15:47:26.760Z,7.45
2023-05-22T15:50:14.445Z,8.18
2023-05-22T15:53:02.841Z,7.88
2023-05-22T15:58:59.792Z,8.38
2023-05-22T16:02:10.726Z,8.43
2023-05-22T16:04:59.787Z,9.85
2023-05-22T16:07:54.188Z,8.40
2023-05-22T16:14:00.846Z,8.25
2023-05-22T16:16:48.781Z,9.90
2023-05-22T16:19:36.840Z,11.48
2023-05-22T16:22:33.051Z,9.75
2023-05-22T16:25:43.574Z,10.23
2023-05-22T16:28:32.529Z,8.52
2023-05-22T16:32:14.901Z,6.95
2023-05-22T16:35:32.221Z,6.33
2023-05-22T16:38:20.050Z,7.75
2023-05-22T16:41:09.327Z,12.70
2023-05-22T16:43:56.972Z,11.48
2023-05-22T16:46:47.626Z,8.02
2023-05-22T16:49:42.794Z,7.75
2023-05-22T16:57:55.089Z,9.18
2023-05-22T16:59:58.091Z,8.90
2023-05-22T17:02:48.534Z,8.95
2023-05-22T17:05:38.195Z,8.70
2023-05-22T17:08:29.203Z,8.60
2023-05-22T17:11:21.149Z,9.23
2023-05-22T17:14:09.012Z,10.32
2023-05-22T17:17:11.476Z,14.07
2023-05-22T17:20:01.168Z,10.60
2023-05-22T17:22:48.822Z,8.13
2023-05-22T17:25:38.033Z,9.25
2023-05-22T17:28:28.539Z,9.93
2023-05-22T17:31:16.756Z,8.35
2023-05-22T17:34:17.476Z,11.57
2023-05-22T17:37:09.007Z,8.63
2023-05-22T17:39:56.568Z,12.90
2023-05-22T17:42:44.116Z,9.82
2023-05-22T17:45:38.972Z,10.10
2023-05-22T17:51:30.985Z,10.43
2023-05-22T17:58:24.969Z,12.23
2023-05-22T18:01:15.410Z,14.50
2023-05-22T18:04:18.961Z,11.77
2023-05-22T18:07:20.471Z,14.82
2023-05-22T18:10:11.285Z,12.02
2023-05-22T18:13:03.399Z,10.90
2023-05-22T18:15:51.797Z,13.00
2023-05-22T18:18:39.361Z,12.45
2023-05-22T18:21:26.931Z,12.55
2023-05-22T18:24:15.072Z,14.48
2023-05-22T18:27:03.060Z,12.57
2023-05-22T18:29:51.855Z,13.02
2023-05-22T18:32:40.378Z,13.40
2023-05-22T18:35:28.055Z,11.18
2023-05-22T18:38:17.884Z,14.38
2023-05-22T18:41:07.111Z,13.95
2023-05-22T18:43:57.855Z,13.60
2023-05-22T18:46:45.335Z,11.38
2023-05-22T18:49:36.345Z,12.57
2023-05-22T18:52:23.912Z,11.63
2023-05-22T18:55:12.913Z,13.05
2023-05-22T18:58:00.681Z,22.88
2023-05-22T19:00:52.680Z,16.45
2023-05-22T19:03:41.902Z,17.77
2023-05-22T19:06:31.330Z,15.05
2023-05-22T19:09:18.685Z,14.60
2023-05-22T19:12:10.178Z,13.20
2023-05-22T19:14:58.979Z,13.60
2023-05-22T19:17:46.583Z,13.57
2023-05-22T19:20:37.280Z,14.88
2023-05-22T19:23:25.920Z,18.60
2023-05-22T19:26:13.376Z,13.80
2023-05-22T19:29:00.694Z,16.63
2023-05-22T19:31:56.269Z,16.92
2023-05-22T19:34:44.149Z,15.20
2023-05-22T19:37:38.231Z,14.45
2023-05-22T19:40:26.136Z,18.25
2023-05-22T19:43:16.463Z,16.33
2023-05-22T19:46:08.553Z,17.27
2023-05-22T19:49:02.863Z,17.05
2023-05-22T19:51:56.158Z,18.05
2023-05-22T19:54:49.219Z,21.67
2023-05-22T19:57:40.000Z,21.10
2023-05-22T20:00:31.683Z,23.25
2023-05-22T20:03:22.772Z,20.43
2023-05-22T20:06:10.235Z,22.17
2023-05-22T20:08:58.270Z,20.70
2023-05-22T20:11:53.503Z,23.10
2023-05-22T20:15:03.127Z,29.65
2023-05-22T20:17:56.207Z,22.13
2023-05-22T20:20:43.798Z,21.00
2023-05-22T20:23:31.406Z,22.65
2023-05-22T20:26:20.228Z,20.20
2023-05-22T20:29:11.979Z,20.92
2023-05-22T20:32:00.832Z,22.43
2023-05-22T20:34:52.724Z,22.10
2023-05-22T20:37:41.764Z,26.23
2023-05-22T20:40:32.341Z,20.63
2023-05-22T20:43:21.417Z,19.75
2023-05-22T20:46:09.894Z,23.88
2023-05-22T20:48:58.650Z,18.58
2023-05-22T20:51:49.099Z,23.13
2023-05-22T20:54:36.765Z,20.17
2023-05-22T20:57:27.785Z,21.33
2023-05-22T21:00:15.176Z,18.67
2023-05-22T21:03:02.573Z,17.27
2023-05-22T21:05:50.025Z,18.63
2023-05-22T21:08:40.050Z,18.45
2023-05-22T21:11:27.963Z,21.27
2023-05-22T21:14:17.276Z,21.83
2023-05-22T21:17:08.322Z,20.35
2023-05-22T21:19:59.047Z,20.77
2023-05-22T21:22:48.234Z,20.63
2023-05-22T21:25:36.524Z,23.65
2023-05-22T21:28:23.745Z,21.83
2023-05-22T21:31:15.640Z,24.40
2023-05-22T21:34:03.123Z,21.67
2023-05-22T21:36:51.714Z,20.23
2023-05-22T21:39:39.197Z,22.90
2023-05-22T21:42:45.968Z,22.67
2023-05-22T21:45:40.774Z,24.90
2023-05-22T21:48:28.133Z,22.65
2023-05-22T21:51:18.157Z,23.55
2023-05-22T21:54:07.750Z,23.52
2023-05-22T21:56:57.517Z,22.85
2023-05-22T21:59:44.872Z,24.73
2023-05-22T22:02:32.216Z,25.35
2023-05-22T22:05:19.574Z,23.83
2023-05-22T22:08:12.297Z,21.40
2023-05-22T22:13:47.273Z,24.05
2023-05-22T22:16:43.610Z,23.90
2023-05-22T22:19:31.194Z,24.20
2023-05-22T22:22:22.890Z,20.90
2023-05-22T22:25:10.705Z,25.85
2023-05-22T22:27:59.434Z,21.90
2023-05-22T22:30:49.435Z,23.23
2023-05-22T22:33:36.872Z,24.25
2023-05-22T22:36:24.332Z,25.17
2023-05-22T22:39:11.863Z,24.13
2023-05-22T22:42:07.889Z,23.33
2023-05-22T22:45:00.477Z,23.60
2023-05-22T22:50:39.050Z,29.90
2023-05-22T22:53:29.536Z,24.35
2023-05-22T22:56:17.440Z,22.38
2023-05-22T22:59:08.377Z,30.33
2023-05-22T23:01:57.106Z,25.02
2023-05-22T23:04:44.568Z,22.65
2023-05-22T23:07:37.402Z,25.17
2023-05-22T23:10:25.738Z,25.95
2023-05-22T23:13:17.461Z,20.88
2023-05-22T23:16:10.994Z,21.00
2023-05-22T23:19:03.495Z,18.83
2023-05-22T23:21:52.586Z,20.00
2023-05-22T23:24:39.844Z,23.45
2023-05-22T23:27:27.190Z,19.98
2023-05-22T23:30:19.748Z,21.83
2023-05-22T23:33:11.708Z,19.95
2023-05-22T23:36:02.618Z,22.10
2023-05-22T23:38:54.127Z,25.80
2023-05-22T23:41:42.399Z,27.85
2023-05-22T23:44:31.816Z,29.20
2023-05-22T23:47:19.241Z,31.02
2023-05-22T23:50:07.193Z,30.45
2023-05-22T23:52:55.042Z,31.25
2023-05-22T23:55:42.638Z,36.88
2023-05-22T23:58:30.405Z,34.25
